createdAt,value
2019-05-06T00:01:34.326Z,67.74
2019-05-06T00:04:44.785Z,68.23
2019-05-06T00:07:54.898Z,67.62
2019-05-06T00:10:59.311Z,67.99
2019-05-06T00:14:03.932Z,68.76
2019-05-06T00:17:07.792Z,69.06
2019-05-06T00:20:11.487Z,69.83
2019-05-06T00:23:16.802Z,70.15
2019-05-06T00:26:31.151Z,70.60
2019-05-06T00:29:35.195Z,69.97
2019-05-06T00:32:38.746Z,70.34
2019-05-06T00:35:42.354Z,70.69
2019-05-06T00:38:47.560Z,70.88
2019-05-06T00:41:59.820Z,71.83
2019-05-06T00:45:04.566Z,71.56
2019-05-06T00:48:08.230Z,72.09
2019-05-06T00:51:13.561Z,71.90
2019-05-06T00:54:18.843Z,72.25
2019-05-06T00:57:24.087Z,71.67
2019-05-06T01:00:29.515Z,71.83
2019-05-06T01:03:34.692Z,71.41
2019-05-06T01:06:38.534Z,71.42
2019-05-06T01:09:43.825Z,71.51
2019-05-06T01:12:55.039Z,71.67
2019-05-06T01:15:58.603Z,71.78
2019-05-06T01:19:02.165Z,71.86
2019-05-06T01:22:05.726Z,70.97
2019-05-06T01:25:09.858Z,70.67
2019-05-06T01:28:13.895Z,70.59
2019-05-06T01:31:17.657Z,70.60
2019-05-06T01:34:21.376Z,70.74
2019-05-06T01:37:27.574Z,70.84
2019-05-06T01:40:35.160Z,70.71
2019-05-06T01:43:41.526Z,70.93
2019-05-06T01:46:45.076Z,70.46
2019-05-06T01:49:48.601Z,70.77
2019-05-06T01:52:54.030Z,70.67
2019-05-06T01:55:57.635Z,70.34
2019-05-06T01:59:01.163Z,70.52
2019-05-06T02:02:05.746Z,70.48
2019-05-06T02:05:09.735Z,69.96
2019-05-06T02:08:13.600Z,69.86
2019-05-06T02:11:17.100Z,69.65
2019-05-06T02:14:20.685Z,68.78
2019-05-06T02:17:24.534Z,68.91
2019-05-06T02:20:28.080Z,68.71
2019-05-06T02:23:49.928Z,68.76
2019-05-06T02:26:54.259Z,68.81
2019-05-06T02:30:05.502Z,68.79
2019-05-06T02:33:25.902Z,68.48
2019-05-06T02:36:37.008Z,68.50
2019-05-06T02:39:43.601Z,68.87
2019-05-06T02:42:45.857Z,68.86
2019-05-06T02:45:49.380Z,69.30
2019-05-06T02:48:57.363Z,69.26
2019-05-06T02:52:03.130Z,69.12
2019-05-06T02:55:07.013Z,69.30
2019-05-06T02:58:10.594Z,69.01
2019-05-06T03:01:14.416Z,69.49
2019-05-06T03:04:18.110Z,69.65
2019-05-06T03:07:23.348Z,69.57
2019-05-06T03:10:26.994Z,69.46
2019-05-06T03:13:33.638Z,69.64
2019-05-06T03:16:35.794Z,69.97
2019-05-06T03:19:45.670Z,70.55
2019-05-06T03:22:54.544Z,70.87
2019-05-06T03:25:58.304Z,70.65
2019-05-06T03:29:02.933Z,70.43
2019-05-06T03:32:07.831Z,70.01
2019-05-06T03:35:31.512Z,70.25
2019-05-06T03:38:17.027Z,70.40
2019-05-06T03:41:26.064Z,70.61
2019-05-06T03:44:25.846Z,71.01
2019-05-06T03:47:34.683Z,71.62
2019-05-06T03:50:38.534Z,72.51
2019-05-06T03:53:43.542Z,72.94
2019-05-06T03:56:47.934Z,72.82
2019-05-06T03:59:53.100Z,72.03
2019-05-06T04:02:56.721Z,72.29
2019-05-06T04:06:04.483Z,72.63
2019-05-06T04:09:07.123Z,72.90
2019-05-06T04:12:12.830Z,72.26
2019-05-06T04:15:16.274Z,72.69
2019-05-06T04:18:23.920Z,72.50
2019-05-06T04:21:32.980Z,72.80
2019-05-06T04:24:45.542Z,73.02
2019-05-06T04:27:53.475Z,73.92
2019-05-06T04:30:56.089Z,74.37
2019-05-06T04:34:12.343Z,74.55
2019-05-06T04:37:05.254Z,73.26
2019-05-06T04:40:09.164Z,70.65
2019-05-06T04:43:13.575Z,67.62
2019-05-06T04:46:17.524Z,66.68
2019-05-06T04:49:23.706Z,66.70
2019-05-06T04:52:26.882Z,66.45
2019-05-06T04:55:33.630Z,66.17
2019-05-06T04:58:37.460Z,66.83
2019-05-06T05:01:41.129Z,66.64
2019-05-06T05:04:44.925Z,66.40
2019-05-06T05:07:48.755Z,66.57
2019-05-06T05:10:56.929Z,66.14
2019-05-06T05:14:14.627Z,65.82
2019-05-06T05:17:23.359Z,65.33
2019-05-06T05:20:36.996Z,67.62
2019-05-06T05:23:32.465Z,64.55
2019-05-06T05:26:37.075Z,64.25
2019-05-06T05:29:42.408Z,63.93
2019-05-06T05:32:45.865Z,64.19
2019-05-06T05:35:49.544Z,64.26
2019-05-06T05:38:53.360Z,64.64
2019-05-06T05:41:58.798Z,62.81
2019-05-06T05:45:02.799Z,62.40
2019-05-06T05:48:08.107Z,61.00
2019-05-06T05:51:12.739Z,59.71
2019-05-06T05:54:16.442Z,58.37
2019-05-06T05:57:19.998Z,58.93
2019-05-06T06:00:25.238Z,58.74
2019-05-06T06:03:28.829Z,60.48
2019-05-06T06:06:33.938Z,60.35
2019-05-06T06:09:42.146Z,59.61
2019-05-06T06:12:45.678Z,58.82
2019-05-06T06:15:52.126Z,56.73
2019-05-06T06:19:00.304Z,57.95
2019-05-06T06:22:07.885Z,57.97
2019-05-06T06:25:14.233Z,56.05
2019-05-06T06:28:17.955Z,57.32
2019-05-06T06:31:35.199Z,57.27
2019-05-06T06:34:42.773Z,57.03
2019-05-06T06:37:52.350Z,58.04
2019-05-06T06:40:56.447Z,56.65
2019-05-06T06:44:02.240Z,54.68
2019-05-06T06:47:05.822Z,55.48
2019-05-06T06:50:09.510Z,56.80
2019-05-06T06:53:13.107Z,56.80
2019-05-06T06:56:18.299Z,57.43
2019-05-06T06:59:27.803Z,56.95
2019-05-06T07:02:37.155Z,57.23
2019-05-06T07:05:42.832Z,53.90
2019-05-06T07:08:57.719Z,51.56
2019-05-06T07:12:03.469Z,50.65
2019-05-06T07:15:07.447Z,52.69
2019-05-06T07:18:13.502Z,53.48
2019-05-06T07:21:24.267Z,50.99
2019-05-06T07:24:27.981Z,50.23
2019-05-06T07:31:13.234Z,53.08
2019-05-06T07:34:02.890Z,50.15
2019-05-06T07:37:08.900Z,50.35
2019-05-06T07:40:15.915Z,52.11
2019-05-06T07:43:33.918Z,50.36
2019-05-06T07:46:53.612Z,50.94
2019-05-06T07:49:57.237Z,49.27
2019-05-06T07:53:06.619Z,49.10
2019-05-06T07:56:12.121Z,45.35
2019-05-06T07:59:18.154Z,46.74
2019-05-06T08:02:23.507Z,48.05
2019-05-06T08:05:55.255Z,47.36
2019-05-06T08:08:49.786Z,46.12
2019-05-06T08:11:53.381Z,49.33
2019-05-06T08:15:04.527Z,49.66
2019-05-06T08:18:06.261Z,50.76
2019-05-06T08:21:14.371Z,51.77
2019-05-06T08:24:17.997Z,50.72
2019-05-06T08:27:22.727Z,51.07
2019-05-06T08:30:26.506Z,47.38
2019-05-06T08:33:30.045Z,47.02
2019-05-06T08:36:44.451Z,47.87
2019-05-06T08:39:48.017Z,43.76
2019-05-06T08:42:53.167Z,42.76
2019-05-06T08:45:56.868Z,45.80
2019-05-06T08:49:02.829Z,47.48
2019-05-06T08:52:07.370Z,49.92
2019-05-06T08:55:12.597Z,51.58
2019-05-06T08:58:16.284Z,51.08
2019-05-06T09:01:39.027Z,45.84
2019-05-06T09:04:42.845Z,46.14
2019-05-06T09:07:53.114Z,46.08
2019-05-06T09:10:56.683Z,43.92
2019-05-06T09:14:03.462Z,40.38
2019-05-06T09:17:09.088Z,43.14
2019-05-06T09:20:13.107Z,38.09
2019-05-06T09:23:16.646Z,40.37
2019-05-06T09:26:27.822Z,39.36
2019-05-06T09:29:48.073Z,38.00
2019-05-06T09:32:52.168Z,40.05
2019-05-06T09:35:55.855Z,41.34
2019-05-06T09:39:07.361Z,42.13
2019-05-06T09:42:12.855Z,42.03
2019-05-06T09:45:16.326Z,42.77
2019-05-06T09:48:24.182Z,43.89
2019-05-06T09:51:27.722Z,44.46
2019-05-06T09:54:36.980Z,43.23
2019-05-06T09:57:48.039Z,41.91
2019-05-06T10:00:53.280Z,42.17
2019-05-06T10:03:56.918Z,42.34
2019-05-06T10:07:02.558Z,42.78
2019-05-06T10:10:06.616Z,44.01
2019-05-06T10:13:12.673Z,45.46
2019-05-06T10:16:15.734Z,45.51
2019-05-06T10:19:19.254Z,44.25
2019-05-06T10:22:23.359Z,46.18
2019-05-06T10:25:26.996Z,46.80
2019-05-06T10:28:41.384Z,45.73
2019-05-06T10:31:46.552Z,44.07
2019-05-06T10:34:52.431Z,42.65
2019-05-06T10:38:24.347Z,43.74
2019-05-06T10:41:33.715Z,44.40
2019-05-06T10:44:42.832Z,43.96
2019-05-06T10:47:45.555Z,42.57
2019-05-06T10:50:52.090Z,40.51
2019-05-06T10:53:56.155Z,38.84
2019-05-06T10:57:02.254Z,38.78
2019-05-06T11:00:07.915Z,37.54
2019-05-06T11:03:14.987Z,36.00
2019-05-06T11:06:18.533Z,32.54
2019-05-06T11:09:22.746Z,32.67
2019-05-06T11:12:26.475Z,32.59
2019-05-06T11:15:32.898Z,35.68
2019-05-06T11:18:35.939Z,36.77
2019-05-06T11:21:42.191Z,38.19
2019-05-06T11:24:46.467Z,38.52
2019-05-06T11:27:52.478Z,37.60
2019-05-06T11:31:02.253Z,37.06
2019-05-06T11:34:22.514Z,36.86
2019-05-06T11:37:27.678Z,38.06
2019-05-06T11:40:33.074Z,38.41
2019-05-06T11:43:36.537Z,36.92
2019-05-06T11:46:40.154Z,36.86
2019-05-06T11:49:44.258Z,33.68
2019-05-06T11:52:47.894Z,34.10
2019-05-06T11:55:54.432Z,32.10
2019-05-06T11:58:58.740Z,30.65
2019-05-06T12:02:03.990Z,30.08
2019-05-06T12:05:07.690Z,30.23
2019-05-06T12:08:13.753Z,31.06
2019-05-06T12:11:16.599Z,30.82
2019-05-06T12:14:23.224Z,30.88
2019-05-06T12:17:28.300Z,32.16
2019-05-06T12:20:36.423Z,31.26
2019-05-06T12:23:53.528Z,32.71
2019-05-06T12:26:49.444Z,32.56
2019-05-06T12:29:55.930Z,31.56
2019-05-06T12:33:03.187Z,32.98
2019-05-06T12:36:12.796Z,32.45
2019-05-06T12:39:19.819Z,34.96
2019-05-06T12:42:25.161Z,36.60
2019-05-06T12:45:39.154Z,37.29
2019-05-06T12:48:52.015Z,37.68
2019-05-06T12:51:55.159Z,37.80
2019-05-06T12:55:16.390Z,38.18
2019-05-06T12:58:04.154Z,38.20
2019-05-06T13:01:09.282Z,40.08
2019-05-06T13:04:14.465Z,39.96
2019-05-06T13:07:19.825Z,39.71
2019-05-06T13:10:23.702Z,40.20
2019-05-06T13:13:27.312Z,40.30
2019-05-06T13:16:33.249Z,41.12
2019-05-06T13:19:36.257Z,42.81
2019-05-06T13:22:47.278Z,42.53
2019-05-06T13:25:52.773Z,41.36
2019-05-06T13:28:57.822Z,41.51
2019-05-06T13:32:02.088Z,41.82
2019-05-06T13:35:06.726Z,42.26
2019-05-06T13:38:10.319Z,39.55
2019-05-06T13:41:13.853Z,39.70
2019-05-06T13:44:17.759Z,37.54
2019-05-06T13:47:40.515Z,38.88
2019-05-06T13:50:46.352Z,38.33
2019-05-06T13:53:53.405Z,36.10
2019-05-06T13:56:57.279Z,34.55
2019-05-06T14:00:03.087Z,29.89
2019-05-06T14:03:06.330Z,28.29
2019-05-06T14:06:12.242Z,29.46
2019-05-06T14:09:32.464Z,29.67
2019-05-06T14:12:28.958Z,31.77
2019-05-06T14:15:34.058Z,32.62
2019-05-06T14:18:37.943Z,35.91
2019-05-06T14:21:43.127Z,37.46
2019-05-06T14:24:51.181Z,37.98
2019-05-06T14:28:12.627Z,36.95
2019-05-06T14:31:18.065Z,36.79
2019-05-06T14:34:22.981Z,37.18
2019-05-06T14:37:26.773Z,36.62
2019-05-06T14:40:33.129Z,37.15
2019-05-06T14:43:36.778Z,36.77
2019-05-06T14:46:50.845Z,38.07
2019-05-06T14:49:54.400Z,37.77
2019-05-06T14:53:13.790Z,37.68
2019-05-06T14:56:22.608Z,38.04
2019-05-06T14:59:26.850Z,39.61
2019-05-06T15:02:33.685Z,40.00
2019-05-06T15:05:36.348Z,39.89
2019-05-06T15:08:42.619Z,40.30
2019-05-06T15:11:45.475Z,40.92
2019-05-06T15:14:49.063Z,41.67
2019-05-06T15:17:53.239Z,41.02
2019-05-06T15:20:57.065Z,41.37
2019-05-06T15:24:02.618Z,39.74
2019-05-06T15:27:06.153Z,38.71
2019-05-06T15:30:12.426Z,38.66
2019-05-06T15:33:17.685Z,39.52
2019-05-06T15:36:28.716Z,40.06
2019-05-06T15:39:32.774Z,39.79
2019-05-06T15:42:38.659Z,39.77
2019-05-06T15:45:44.667Z,40.59
2019-05-06T15:48:48.191Z,41.88
2019-05-06T15:51:52.463Z,42.88
2019-05-06T15:54:56.053Z,41.64
2019-05-06T15:57:59.687Z,41.46
2019-05-06T16:01:03.423Z,41.66
2019-05-06T16:04:06.928Z,42.62
2019-05-06T16:07:12.662Z,41.77
2019-05-06T16:10:16.985Z,42.09
2019-05-06T16:13:22.302Z,42.23
2019-05-06T16:16:25.804Z,42.31
2019-05-06T16:19:29.334Z,42.29
2019-05-06T16:22:33.844Z,41.98
2019-05-06T16:25:37.611Z,42.58
2019-05-06T16:28:41.763Z,43.26
2019-05-06T16:31:46.471Z,43.23
2019-05-06T16:34:52.309Z,43.55
2019-05-06T16:37:55.538Z,44.29
2019-05-06T16:41:12.749Z,44.01
2019-05-06T16:44:08.655Z,44.66
2019-05-06T16:47:13.912Z,44.76
2019-05-06T16:50:19.417Z,44.72
2019-05-06T16:53:24.507Z,44.07
2019-05-06T16:56:41.802Z,43.82
2019-05-06T16:59:46.229Z,43.73
2019-05-06T17:02:57.641Z,43.72
2019-05-06T17:06:17.627Z,43.54
2019-05-06T17:09:27.061Z,44.09
2019-05-06T17:12:26.764Z,43.68
2019-05-06T17:15:32.176Z,43.92
2019-05-06T17:18:35.725Z,43.64
2019-05-06T17:21:39.457Z,43.79
2019-05-06T17:24:43.028Z,44.06
2019-05-06T17:27:48.170Z,43.95
2019-05-06T17:31:08.633Z,44.47
2019-05-06T17:34:22.324Z,44.19
2019-05-06T17:37:45.969Z,44.39
2019-05-06T17:40:49.622Z,44.36
2019-05-06T17:43:53.240Z,44.84
2019-05-06T17:47:02.638Z,44.84
2019-05-06T17:50:09.397Z,45.43
2019-05-06T17:53:13.033Z,45.15
2019-05-06T17:56:16.574Z,45.74
2019-05-06T17:59:20.284Z,46.02
2019-05-06T18:02:25.529Z,46.83
2019-05-06T18:05:29.113Z,47.29
2019-05-06T18:08:33.493Z,48.12
2019-05-06T18:11:37.299Z,47.96
2019-05-06T18:14:43.558Z,48.73
2019-05-06T18:17:47.907Z,49.54
2019-05-06T18:20:52.896Z,49.84
2019-05-06T18:23:56.734Z,50.46
2019-05-06T18:27:02.467Z,50.83
2019-05-06T18:30:23.247Z,51.31
2019-05-06T18:33:22.455Z,52.16
2019-05-06T18:36:28.451Z,52.48
2019-05-06T18:39:34.039Z,53.04
2019-05-06T18:42:54.722Z,53.02
2019-05-06T18:46:13.540Z,53.70
2019-05-06T18:49:38.131Z,53.71
2019-05-06T18:52:54.499Z,53.97
2019-05-06T18:56:03.248Z,53.78
2019-05-06T18:59:07.048Z,54.12
2019-05-06T19:02:14.248Z,54.13
2019-05-06T19:05:39.476Z,54.17
2019-05-06T19:08:45.915Z,54.17
2019-05-06T19:11:51.941Z,54.05
2019-05-06T19:14:57.119Z,54.20
2019-05-06T19:18:03.460Z,54.32
2019-05-06T19:21:07.061Z,54.51
2019-05-06T19:24:12.283Z,55.00
2019-05-06T19:27:16.033Z,55.03
2019-05-06T19:30:22.339Z,55.04
2019-05-06T19:33:34.945Z,54.97
2019-05-06T19:40:13.525Z,55.32
2019-05-06T19:43:52.535Z,55.30
2019-05-06T19:46:57.550Z,55.49
2019-05-06T19:50:02.818Z,55.53
2019-05-06T19:53:06.972Z,56.20
2019-05-06T19:56:12.402Z,56.97
2019-05-06T19:59:17.456Z,57.33
2019-05-06T20:02:25.154Z,57.24
2019-05-06T20:05:29.482Z,57.68
2019-05-06T20:08:34.709Z,57.31
2019-05-06T20:11:40.003Z,57.47
2019-05-06T20:14:54.469Z,57.30
2019-05-06T20:17:58.020Z,57.35
2019-05-06T20:21:03.231Z,57.22
2019-05-06T20:24:07.758Z,57.55
2019-05-06T20:27:13.309Z,57.48
2019-05-06T20:30:17.014Z,57.90
2019-05-06T20:33:25.811Z,57.58
2019-05-06T20:36:29.281Z,58.74
2019-05-06T20:39:33.099Z,59.32
2019-05-06T20:42:36.872Z,58.11
2019-05-06T20:45:42.861Z,58.31
2019-05-06T20:48:46.757Z,58.75
2019-05-06T20:51:52.189Z,58.91
2019-05-06T20:54:56.483Z,58.81
2019-05-06T20:58:02.529Z,59.17
2019-05-06T21:01:05.409Z,59.08
2019-05-06T21:04:08.963Z,59.19
2019-05-06T21:07:12.626Z,59.33
2019-05-06T21:10:16.352Z,59.45
2019-05-06T21:13:29.502Z,59.57
2019-05-06T21:16:25.468Z,59.62
2019-05-06T21:19:29.605Z,60.08
2019-05-06T21:22:33.219Z,60.88
2019-05-06T21:25:36.919Z,61.13
2019-05-06T21:28:42.525Z,61.62
2019-05-06T21:31:45.921Z,62.29
2019-05-06T21:34:56.334Z,62.62
2019-05-06T21:38:02.358Z,62.75
2019-05-06T21:41:09.838Z,63.09
2019-05-06T21:44:16.037Z,63.57
2019-05-06T21:47:19.642Z,63.75
2019-05-06T21:50:23.248Z,64.61
2019-05-06T21:53:26.806Z,64.91
2019-05-06T21:56:32.007Z,65.02
2019-05-06T21:59:35.700Z,65.37
2019-05-06T22:02:42.153Z,65.52
2019-05-06T22:05:45.160Z,65.69
2019-05-06T22:08:51.892Z,66.65
2019-05-06T22:11:55.680Z,67.09
2019-05-06T22:14:59.219Z,67.19
2019-05-06T22:18:02.835Z,68.00
2019-05-06T22:21:22.338Z,67.33
2019-05-06T22:24:27.348Z,68.03
2019-05-06T22:27:31.004Z,67.79
2019-05-06T22:30:36.220Z,68.07
2019-05-06T22:33:42.760Z,68.34
2019-05-06T22:36:46.389Z,68.89
2019-05-06T22:39:52.571Z,69.02
2019-05-06T22:42:55.819Z,69.60
2019-05-06T22:45:59.357Z,69.88
2019-05-06T22:49:02.918Z,70.00
2019-05-06T22:52:07.255Z,70.18
2019-05-06T22:55:13.938Z,70.29
2019-05-06T22:58:17.583Z,70.32
2019-05-06T23:01:39.178Z,70.87
2019-05-06T23:04:44.394Z,70.73
2019-05-06T23:07:47.946Z,71.16
2019-05-06T23:10:52.853Z,70.24
2019-05-06T23:13:56.455Z,70.61
2019-05-06T23:17:00.053Z,70.73
2019-05-06T23:20:04.917Z,70.81
2019-05-06T23:23:08.551Z,70.62
2019-05-06T23:26:19.359Z,70.84
2019-05-06T23:29:22.949Z,71.32
2019-05-06T23:32:26.531Z,71.62
2019-05-06T23:35:30.062Z,71.63
2019-05-06T23:39:10.238Z,71.47
2019-05-06T23:42:52.587Z,71.13
2019-05-06T23:46:32.944Z,70.48
2019-05-06T23:50:12.650Z,70.48
2019-05-06T23:53:52.576Z,70.07
2019-05-06T23:56:54.980Z,69.62
2019-05-06T23:59:58.625Z,69.57
